createdAt,value
2018-09-10T00:00:18.662Z,75.40
2018-09-10T00:02:47.529Z,75.00
2018-09-10T00:05:15.926Z,75.00
2018-09-10T00:07:44.436Z,75.60
2018-09-10T00:10:12.851Z,75.70
2018-09-10T00:12:41.293Z,75.70
2018-09-10T00:15:09.774Z,75.30
2018-09-10T00:17:38.199Z,74.90
2018-09-10T00:20:06.735Z,74.90
2018-09-10T00:22:35.253Z,74.90
2018-09-10T00:25:03.713Z,75.20
2018-09-10T00:27:32.133Z,75.20
2018-09-10T00:30:01.069Z,75.00
2018-09-10T00:32:29.473Z,75.00
2018-09-10T00:34:58.016Z,75.10
2018-09-10T00:37:26.995Z,75.10
2018-09-10T00:39:55.697Z,75.20
2018-09-10T00:42:24.171Z,75.40
2018-09-10T00:44:52.587Z,75.80
2018-09-10T00:47:21.145Z,76.00
2018-09-10T00:49:49.605Z,76.30
2018-09-10T00:52:20.213Z,76.00
2018-09-10T00:54:48.851Z,75.20
2018-09-10T00:57:17.243Z,74.60
2018-09-10T00:59:46.732Z,75.20
2018-09-10T01:02:15.101Z,76.50
2018-09-10T01:04:43.549Z,77.80
2018-09-10T01:07:11.948Z,78.90
2018-09-10T01:09:40.315Z,79.70
2018-09-10T01:12:08.723Z,80.20
2018-09-10T01:14:37.110Z,80.50
2018-09-10T01:17:05.632Z,80.60
2018-09-10T01:19:34.021Z,80.70
2018-09-10T01:22:02.373Z,80.90
2018-09-10T01:24:30.756Z,80.90
2018-09-10T01:26:59.172Z,81.10
2018-09-10T01:29:27.552Z,81.10
2018-09-10T01:31:55.941Z,81.10
2018-09-10T01:34:29.725Z,80.90
2018-09-10T01:36:58.145Z,81.10
2018-09-10T01:39:26.548Z,81.20
2018-09-10T01:41:55.021Z,81.90
2018-09-10T01:44:23.509Z,81.60
2018-09-10T01:46:51.933Z,81.70
2018-09-10T01:49:20.375Z,82.60
2018-09-10T01:51:48.793Z,82.40
2018-09-10T01:54:17.212Z,82.90
2018-09-10T01:56:45.714Z,82.90
2018-09-10T01:59:14.174Z,83.20
2018-09-10T02:01:42.582Z,83.50
2018-09-10T02:04:10.993Z,83.70
2018-09-10T02:06:39.409Z,82.80
2018-09-10T02:09:09.306Z,82.50
2018-09-10T02:11:38.477Z,82.80
2018-09-10T02:14:07.030Z,83.40
2018-09-10T02:16:35.468Z,83.30
2018-09-10T02:19:03.865Z,83.60
2018-09-10T02:21:32.304Z,83.20
2018-09-10T02:24:00.788Z,83.40
2018-09-10T02:26:29.156Z,83.90
2018-09-10T02:28:57.845Z,84.40
2018-09-10T02:31:26.272Z,84.20
2018-09-10T02:33:57.217Z,84.90
2018-09-10T02:36:27.366Z,84.70
2018-09-10T02:38:55.909Z,84.50
2018-09-10T02:41:24.351Z,84.50
2018-09-10T02:43:53.629Z,84.90
2018-09-10T02:46:22.015Z,85.10
2018-09-10T02:48:50.434Z,84.80
2018-09-10T02:51:18.879Z,84.60
2018-09-10T02:53:48.735Z,84.20
2018-09-10T02:56:17.187Z,84.20
2018-09-10T02:58:45.571Z,84.00
2018-09-10T03:01:14.032Z,84.00
2018-09-10T03:03:42.463Z,84.00
2018-09-10T03:06:10.900Z,84.30
2018-09-10T03:08:39.379Z,84.70
2018-09-10T03:11:07.900Z,84.90
2018-09-10T03:13:36.311Z,85.50
2018-09-10T03:16:04.700Z,85.60
2018-09-10T03:18:33.103Z,86.00
2018-09-10T03:21:01.505Z,85.20
2018-09-10T03:23:30.066Z,86.00
2018-09-10T03:25:58.593Z,85.20
2018-09-10T03:28:27.014Z,85.00
2018-09-10T03:30:55.578Z,84.80
2018-09-10T03:33:24.043Z,85.20
2018-09-10T03:35:52.335Z,85.00
2018-09-10T03:38:20.777Z,85.60
2018-09-10T03:40:51.434Z,85.90
2018-09-10T03:43:19.843Z,85.80
2018-09-10T03:45:48.244Z,86.10
2018-09-10T03:48:17.471Z,85.80
2018-09-10T03:50:46.533Z,86.00
2018-09-10T03:53:14.888Z,86.20
2018-09-10T03:55:43.285Z,86.30
2018-09-10T03:58:11.725Z,86.30
2018-09-10T04:00:40.230Z,86.80
2018-09-10T04:03:08.900Z,86.80
2018-09-10T04:05:37.370Z,87.10
2018-09-10T04:08:05.825Z,87.10
2018-09-10T04:10:34.212Z,87.00
2018-09-10T04:13:02.746Z,87.50
2018-09-10T04:15:31.093Z,88.10
2018-09-10T04:17:59.524Z,88.60
2018-09-10T04:20:28.016Z,88.70
2018-09-10T04:23:03.061Z,88.70
2018-09-10T04:25:31.470Z,89.20
2018-09-10T04:27:59.875Z,89.40
2018-09-10T04:30:28.270Z,89.80
2018-09-10T04:32:56.685Z,89.50
2018-09-10T04:35:25.073Z,89.30
2018-09-10T04:37:53.589Z,89.20
2018-09-10T04:40:22.218Z,89.10
2018-09-10T04:42:54.979Z,89.00
2018-09-10T04:45:25.697Z,89.10
2018-09-10T04:47:57.116Z,89.30
2018-09-10T04:50:26.891Z,89.70
2018-09-10T04:52:58.258Z,90.00
2018-09-10T04:55:28.263Z,89.90
2018-09-10T04:57:57.490Z,89.80
2018-09-10T05:00:26.397Z,90.00
2018-09-10T05:02:57.839Z,89.90
2018-09-10T05:05:31.221Z,89.60
2018-09-10T05:07:59.804Z,89.40
2018-09-10T05:10:28.568Z,89.40
2018-09-10T05:12:58.445Z,89.70
2018-09-10T05:15:27.974Z,90.00
2018-09-10T05:17:58.632Z,90.50
2018-09-10T05:20:29.136Z,90.40
2018-09-10T05:22:59.159Z,89.90
2018-09-10T05:25:27.934Z,86.60
2018-09-10T05:27:59.807Z,85.70
2018-09-10T05:30:28.419Z,85.90
2018-09-10T05:32:56.895Z,86.10
2018-09-10T05:35:25.280Z,86.50
2018-09-10T05:37:53.702Z,86.90
2018-09-10T05:40:22.354Z,87.60
2018-09-10T05:42:50.888Z,89.00
2018-09-10T05:45:19.352Z,89.50
2018-09-10T05:47:47.930Z,89.50
2018-09-10T05:50:16.452Z,89.10
2018-09-10T05:52:45.182Z,88.20
2018-09-10T05:55:13.737Z,87.80
2018-09-10T05:57:42.097Z,87.40
2018-09-10T06:00:11.057Z,86.90
2018-09-10T06:02:39.703Z,86.50
2018-09-10T06:05:08.119Z,86.30
2018-09-10T06:07:36.596Z,85.50
2018-09-10T06:10:05.250Z,85.40
2018-09-10T06:12:33.666Z,85.40
2018-09-10T06:15:03.003Z,85.00
2018-09-10T06:17:31.432Z,84.80
2018-09-10T06:19:59.837Z,85.10
2018-09-10T06:22:28.360Z,85.60
2018-09-10T06:24:56.724Z,85.90
2018-09-10T06:27:25.166Z,86.20
2018-09-10T06:29:53.827Z,86.00
2018-09-10T06:32:23.471Z,86.00
2018-09-10T06:34:51.917Z,85.50
2018-09-10T06:37:20.325Z,84.80
2018-09-10T06:39:48.730Z,84.80
2018-09-10T06:42:17.153Z,84.40
2018-09-10T06:44:45.523Z,84.00
2018-09-10T06:47:14.046Z,83.40
2018-09-10T06:49:42.489Z,83.00
2018-09-10T06:52:10.993Z,82.40
2018-09-10T06:54:39.464Z,81.20
2018-09-10T06:57:07.909Z,80.70
2018-09-10T06:59:36.318Z,79.60
2018-09-10T07:02:04.687Z,79.50
2018-09-10T07:04:33.444Z,78.60
2018-09-10T07:07:02.784Z,78.40
2018-09-10T07:09:31.243Z,77.90
2018-09-10T07:11:59.681Z,77.30
2018-09-10T07:14:28.111Z,77.40
2018-09-10T07:16:56.589Z,77.70
2018-09-10T07:19:25.054Z,77.30
2018-09-10T07:21:53.485Z,76.50
2018-09-10T07:24:21.940Z,75.80
2018-09-10T07:26:50.430Z,75.60
2018-09-10T07:29:18.868Z,75.20
2018-09-10T07:31:47.278Z,75.00
2018-09-10T07:34:15.740Z,75.00
2018-09-10T07:36:44.162Z,74.70
2018-09-10T07:39:12.738Z,75.10
2018-09-10T07:41:41.274Z,74.70
2018-09-10T07:44:10.437Z,74.60
2018-09-10T07:46:39.153Z,74.50
2018-09-10T07:49:07.622Z,74.00
2018-09-10T07:51:36.127Z,74.20
2018-09-10T07:54:05.190Z,73.60
2018-09-10T07:56:33.655Z,72.90
2018-09-10T07:59:02.081Z,72.90
2018-09-10T08:01:30.623Z,72.10
2018-09-10T08:03:59.456Z,71.90
2018-09-10T08:06:27.928Z,71.50
2018-09-10T08:08:56.382Z,71.50
2018-09-10T08:11:27.374Z,71.30
2018-09-10T08:13:55.957Z,70.80
2018-09-10T08:16:24.656Z,70.40
2018-09-10T08:18:53.058Z,69.10
2018-09-10T08:21:21.691Z,67.50
2018-09-10T08:23:50.151Z,67.80
2018-09-10T08:26:18.874Z,66.70
2018-09-10T08:28:47.504Z,65.90
2018-09-10T08:31:16.071Z,65.60
2018-09-10T08:33:44.570Z,65.80
2018-09-10T08:36:13.281Z,65.50
2018-09-10T08:38:41.682Z,64.40
2018-09-10T08:41:10.110Z,64.20
2018-09-10T08:43:38.629Z,63.60
2018-09-10T08:46:07.059Z,63.70
2018-09-10T08:48:35.422Z,63.10
2018-09-10T08:51:03.892Z,63.10
2018-09-10T08:53:32.371Z,63.30
2018-09-10T08:56:07.629Z,63.60
2018-09-10T08:58:35.866Z,63.10
2018-09-10T09:01:04.313Z,63.00
2018-09-10T09:03:32.792Z,62.80
2018-09-10T09:06:01.226Z,63.00
2018-09-10T09:08:29.662Z,62.10
2018-09-10T09:10:58.089Z,61.70
2018-09-10T09:13:26.563Z,60.80
2018-09-10T09:15:54.991Z,60.70
2018-09-10T09:18:23.392Z,60.70
2018-09-10T09:20:51.869Z,60.10
2018-09-10T09:23:20.321Z,59.80
2018-09-10T09:25:48.650Z,58.80
2018-09-10T09:28:17.201Z,58.20
2018-09-10T09:30:45.588Z,57.20
2018-09-10T09:33:14.040Z,56.80
2018-09-10T09:35:47.997Z,57.50
2018-09-10T09:38:22.364Z,57.50
2018-09-10T09:40:55.948Z,57.80
2018-09-10T09:43:29.767Z,57.20
2018-09-10T09:46:05.953Z,58.00
2018-09-10T09:48:34.596Z,57.80
2018-09-10T09:51:03.205Z,57.50
2018-09-10T09:53:31.572Z,58.00
2018-09-10T09:56:00.028Z,57.00
2018-09-10T09:58:28.414Z,57.60
2018-09-10T10:01:01.022Z,57.20
2018-09-10T10:03:35.156Z,57.30
2018-09-10T10:06:03.610Z,56.80
2018-09-10T10:08:32.018Z,56.60
2018-09-10T10:11:00.448Z,57.00
2018-09-10T10:13:28.791Z,56.30
2018-09-10T10:15:57.214Z,56.70
2018-09-10T10:18:25.635Z,56.30
2018-09-10T10:20:54.095Z,56.20
2018-09-10T10:23:22.611Z,56.00
2018-09-10T10:25:51.092Z,56.40
2018-09-10T10:28:19.675Z,56.10
2018-09-10T10:30:48.083Z,56.00
2018-09-10T10:33:16.530Z,55.80
2018-09-10T10:35:44.904Z,55.30
2018-09-10T10:38:13.358Z,54.80
2018-09-10T10:40:41.785Z,54.80
2018-09-10T10:43:10.335Z,54.40
2018-09-10T10:45:38.865Z,53.50
2018-09-10T10:48:07.299Z,53.60
2018-09-10T10:50:35.785Z,53.30
2018-09-10T10:53:04.181Z,52.70
2018-09-10T10:55:32.634Z,52.70
2018-09-10T10:58:01.048Z,52.20
2018-09-10T11:00:29.440Z,52.20
2018-09-10T11:02:57.843Z,52.90
2018-09-10T11:05:26.225Z,52.70
2018-09-10T11:07:54.707Z,52.40
2018-09-10T11:10:23.099Z,53.40
2018-09-10T11:12:51.777Z,52.90
2018-09-10T11:15:20.230Z,52.70
2018-09-10T11:17:48.647Z,51.50
2018-09-10T11:20:17.577Z,51.20
2018-09-10T11:22:46.242Z,50.10
2018-09-10T11:25:14.709Z,49.50
2018-09-10T11:27:43.182Z,48.80
2018-09-10T11:30:11.527Z,48.80
2018-09-10T11:32:40.155Z,49.60
2018-09-10T11:35:08.619Z,49.80
2018-09-10T11:37:37.107Z,48.10
2018-09-10T11:40:05.549Z,43.10
2018-09-10T11:42:33.933Z,40.70
2018-09-10T11:45:02.430Z,38.40
2018-09-10T11:47:30.856Z,38.50
2018-09-10T11:49:59.280Z,38.00
2018-09-10T11:52:27.709Z,37.00
2018-09-10T11:54:56.664Z,36.30
2018-09-10T11:57:25.434Z,36.00
2018-09-10T11:59:53.866Z,34.30
2018-09-10T12:02:22.347Z,32.50
2018-09-10T12:04:50.740Z,32.00
2018-09-10T12:07:19.205Z,33.20
2018-09-10T12:09:47.624Z,32.40
2018-09-10T12:12:16.010Z,31.40
2018-09-10T12:14:44.448Z,30.40
2018-09-10T12:17:12.846Z,30.40
2018-09-10T12:19:41.323Z,30.00
2018-09-10T12:22:09.700Z,28.80
2018-09-10T12:24:38.097Z,28.40
2018-09-10T12:27:06.597Z,27.80
2018-09-10T12:29:35.760Z,27.80
2018-09-10T12:32:04.373Z,28.60
2018-09-10T12:34:34.680Z,29.70
2018-09-10T12:37:03.097Z,29.70
2018-09-10T12:39:32.463Z,29.80
2018-09-10T12:42:00.841Z,29.50
2018-09-10T12:44:29.293Z,30.80
2018-09-10T12:46:57.733Z,32.20
2018-09-10T12:49:26.128Z,33.10
2018-09-10T12:51:54.637Z,33.00
2018-09-10T12:54:23.905Z,32.60
2018-09-10T12:56:52.387Z,32.30
2018-09-10T12:59:20.877Z,31.40
2018-09-10T13:01:49.300Z,32.70
2018-09-10T13:04:17.712Z,32.80
2018-09-10T13:06:46.043Z,34.10
2018-09-10T13:09:14.474Z,35.10
2018-09-10T13:11:42.948Z,36.60
2018-09-10T13:14:11.681Z,36.90
2018-09-10T13:16:40.127Z,38.50
2018-09-10T13:19:08.681Z,39.10
2018-09-10T13:21:37.155Z,39.20
2018-09-10T13:24:05.607Z,39.60
2018-09-10T13:26:34.029Z,39.90
2018-09-10T13:29:02.481Z,40.20
2018-09-10T13:31:31.113Z,40.30
2018-09-10T13:33:59.576Z,40.60
2018-09-10T13:36:28.053Z,41.20
2018-09-10T13:38:56.417Z,41.90
2018-09-10T13:41:24.854Z,42.70
2018-09-10T13:43:53.364Z,43.80
2018-09-10T13:46:21.791Z,44.10
2018-09-10T13:48:50.634Z,43.30
2018-09-10T13:51:19.063Z,43.20
2018-09-10T13:53:47.468Z,43.30
2018-09-10T13:56:22.372Z,43.60
2018-09-10T13:58:50.817Z,44.10
2018-09-10T14:01:19.459Z,44.40
2018-09-10T14:03:47.981Z,44.10
2018-09-10T14:06:16.398Z,44.70
2018-09-10T14:08:44.788Z,44.90
2018-09-10T14:11:13.186Z,45.40
2018-09-10T14:13:41.625Z,45.80
2018-09-10T14:16:10.053Z,46.20
2018-09-10T14:18:38.443Z,46.40
2018-09-10T14:21:06.896Z,46.80
2018-09-10T14:23:35.287Z,47.20
2018-09-10T14:26:04.102Z,47.90
2018-09-10T14:28:32.758Z,47.70
2018-09-10T14:31:01.220Z,48.00
2018-09-10T14:33:29.761Z,47.70
2018-09-10T14:35:58.433Z,47.80
2018-09-10T14:38:26.964Z,47.50
2018-09-10T14:40:55.364Z,47.20
2018-09-10T14:43:23.760Z,47.50
2018-09-10T14:45:52.313Z,47.80
2018-09-10T14:48:22.026Z,47.90
2018-09-10T14:50:50.416Z,48.10
2018-09-10T14:53:18.749Z,48.40
2018-09-10T14:55:47.165Z,48.60
2018-09-10T14:58:15.808Z,48.10
2018-09-10T15:00:44.117Z,48.10
2018-09-10T15:03:12.496Z,47.20
2018-09-10T15:05:40.920Z,47.50
2018-09-10T15:08:09.267Z,47.20
2018-09-10T15:10:37.733Z,47.70
2018-09-10T15:13:06.139Z,47.90
2018-09-10T15:15:34.589Z,48.20
2018-09-10T15:18:03.155Z,47.90
2018-09-10T15:20:32.258Z,48.30
2018-09-10T15:23:00.685Z,48.40
2018-09-10T15:25:29.176Z,48.60
2018-09-10T15:27:58.226Z,48.20
2018-09-10T15:30:26.713Z,48.50
2018-09-10T15:32:55.145Z,48.50
2018-09-10T15:35:23.659Z,48.30
2018-09-10T15:37:52.060Z,48.20
2018-09-10T15:40:20.438Z,48.50
2018-09-10T15:42:48.924Z,48.10
2018-09-10T15:45:17.391Z,48.50
2018-09-10T15:47:45.842Z,48.90
2018-09-10T15:50:14.373Z,49.30
2018-09-10T15:52:42.792Z,50.00
2018-09-10T15:55:11.308Z,49.80
2018-09-10T15:57:39.715Z,50.10
2018-09-10T16:00:08.251Z,50.00
2018-09-10T16:02:36.951Z,50.30
2018-09-10T16:05:05.680Z,50.60
2018-09-10T16:07:34.233Z,50.50
2018-09-10T16:10:03.298Z,50.50
2018-09-10T16:12:31.959Z,50.60
2018-09-10T16:15:00.365Z,50.20
2018-09-10T16:17:28.914Z,50.20
2018-09-10T16:19:57.601Z,50.20
2018-09-10T16:22:26.147Z,50.40
2018-09-10T16:24:54.600Z,49.60
2018-09-10T16:27:23.673Z,49.10
2018-09-10T16:29:52.131Z,49.30
2018-09-10T16:32:20.887Z,48.70
2018-09-10T16:34:49.604Z,48.30
2018-09-10T16:37:18.097Z,47.20
2018-09-10T16:39:46.821Z,46.90
2018-09-10T16:42:15.603Z,47.40
2018-09-10T16:44:44.800Z,47.70
2018-09-10T16:47:13.442Z,47.70
2018-09-10T16:49:42.204Z,47.50
2018-09-10T16:52:10.901Z,47.00
2018-09-10T16:54:39.589Z,47.50
2018-09-10T16:57:08.028Z,47.90
2018-09-10T16:59:36.496Z,48.40
2018-09-10T17:02:04.909Z,48.90
2018-09-10T17:04:33.525Z,49.40
2018-09-10T17:07:01.924Z,49.70
2018-09-10T17:09:30.343Z,50.10
2018-09-10T17:11:58.793Z,50.70
2018-09-10T17:14:27.280Z,52.80
2018-09-10T17:16:55.714Z,54.10
2018-09-10T17:19:25.906Z,54.80
2018-09-10T17:21:55.098Z,55.50
2018-09-10T17:24:23.489Z,56.00
2018-09-10T17:26:51.922Z,56.50
2018-09-10T17:29:20.653Z,57.10
2018-09-10T17:31:49.519Z,57.40
2018-09-10T17:34:18.348Z,57.90
2018-09-10T17:36:46.993Z,58.40
2018-09-10T17:39:15.537Z,58.90
2018-09-10T17:41:43.901Z,59.20
2018-09-10T17:44:12.304Z,59.50
2018-09-10T17:46:41.623Z,59.70
2018-09-10T17:49:09.978Z,60.00
2018-09-10T17:51:38.758Z,60.30
2018-09-10T17:54:07.177Z,60.50
2018-09-10T17:56:35.739Z,60.70
2018-09-10T17:59:04.465Z,60.90
2018-09-10T18:01:32.945Z,61.10
2018-09-10T18:04:01.306Z,61.40
2018-09-10T18:06:29.768Z,61.60
2018-09-10T18:08:58.198Z,61.90
2018-09-10T18:11:26.591Z,62.20
2018-09-10T18:13:54.984Z,62.40
2018-09-10T18:16:23.423Z,62.50
2018-09-10T18:18:51.859Z,62.60
2018-09-10T18:21:20.677Z,62.70
2018-09-10T18:23:49.095Z,62.80
2018-09-10T18:26:17.546Z,63.00
2018-09-10T18:28:45.918Z,63.10
2018-09-10T18:31:14.314Z,63.30
2018-09-10T18:33:42.707Z,63.10
2018-09-10T18:36:11.105Z,63.10
2018-09-10T18:38:39.501Z,63.10
2018-09-10T18:41:07.893Z,63.10
2018-09-10T18:43:36.302Z,63.00
2018-09-10T18:46:04.710Z,63.10
2018-09-10T18:48:33.091Z,62.90
2018-09-10T18:51:01.477Z,63.00
2018-09-10T18:53:29.983Z,62.90
2018-09-10T18:58:29.372Z,62.90
2018-09-10T19:00:57.921Z,63.00
2018-09-10T19:03:26.259Z,63.30
2018-09-10T19:05:54.677Z,63.60
2018-09-10T19:08:23.254Z,63.70
2018-09-10T19:10:51.691Z,63.90
2018-09-10T19:13:20.355Z,63.90
2018-09-10T19:15:48.767Z,64.00
2018-09-10T19:18:18.381Z,64.30
2018-09-10T19:20:46.911Z,64.40
2018-09-10T19:23:15.367Z,64.50
2018-09-10T19:25:44.453Z,64.80
2018-09-10T19:28:12.866Z,65.00
2018-09-10T19:30:41.281Z,65.00
2018-09-10T19:33:09.957Z,65.20
2018-09-10T19:35:38.568Z,65.60
2018-09-10T19:38:07.033Z,65.80
2018-09-10T19:40:36.036Z,66.10
2018-09-10T19:43:04.724Z,66.30
2018-09-10T19:45:33.249Z,66.70
2018-09-10T19:48:01.763Z,66.80
2018-09-10T19:50:30.268Z,66.90
2018-09-10T19:52:58.795Z,67.10
2018-09-10T19:55:27.297Z,67.20
2018-09-10T19:57:56.761Z,67.40
2018-09-10T20:00:25.369Z,67.50
2018-09-10T20:02:53.785Z,67.60
2018-09-10T20:05:22.165Z,67.70
2018-09-10T20:07:50.624Z,67.70
2018-09-10T20:10:19.258Z,67.70
2018-09-10T20:12:47.766Z,67.80
2018-09-10T20:15:16.154Z,67.80
2018-09-10T20:17:44.697Z,67.90
2018-09-10T20:20:13.118Z,68.00
2018-09-10T20:22:41.582Z,68.00
2018-09-10T20:25:09.977Z,68.10
2018-09-10T20:27:40.561Z,68.20
2018-09-10T20:30:09.068Z,68.40
2018-09-10T20:32:37.483Z,68.50
2018-09-10T20:35:05.971Z,68.50
2018-09-10T20:37:34.883Z,68.60
2018-09-10T20:40:03.380Z,68.70
2018-09-10T20:42:32.768Z,69.00
2018-09-10T20:45:01.288Z,69.10
2018-09-10T20:47:29.764Z,69.50
2018-09-10T20:49:58.232Z,69.50
2018-09-10T20:52:26.688Z,69.50
2018-09-10T20:54:55.241Z,69.60
2018-09-10T20:57:23.708Z,69.90
2018-09-10T20:59:52.098Z,70.30
2018-09-10T21:02:20.705Z,70.50
2018-09-10T21:04:49.357Z,70.90
2018-09-10T21:07:17.982Z,70.80
2018-09-10T21:09:53.875Z,71.10
2018-09-10T21:12:22.473Z,71.10
2018-09-10T21:14:50.986Z,71.30
2018-09-10T21:17:19.409Z,71.40
2018-09-10T21:19:47.875Z,71.80
2018-09-10T21:22:16.279Z,72.00
2018-09-10T21:24:44.794Z,72.10
2018-09-10T21:27:13.222Z,72.10
2018-09-10T21:29:41.647Z,72.10
2018-09-10T21:32:10.052Z,72.30
2018-09-10T21:34:38.703Z,72.20
2018-09-10T21:37:07.172Z,72.30
2018-09-10T21:39:35.624Z,72.20
2018-09-10T21:42:04.083Z,72.40
2018-09-10T21:44:32.577Z,72.80
2018-09-10T21:47:01.106Z,73.10
2018-09-10T21:49:29.437Z,73.60
2018-09-10T21:51:57.888Z,73.80
2018-09-10T21:54:26.304Z,74.00
2018-09-10T21:56:54.721Z,74.10
2018-09-10T21:59:23.147Z,74.60
2018-09-10T22:01:53.464Z,74.80
2018-09-10T22:04:21.881Z,74.60
2018-09-10T22:06:50.383Z,74.90
2018-09-10T22:09:18.788Z,75.00
2018-09-10T22:11:52.693Z,75.30
2018-09-10T22:14:21.082Z,75.50
2018-09-10T22:16:49.462Z,75.80
2018-09-10T22:19:18.286Z,76.20
2018-09-10T22:21:47.617Z,76.10
2018-09-10T22:24:17.017Z,76.40
2018-09-10T22:26:45.475Z,76.10
2018-09-10T22:29:14.029Z,76.10
2018-09-10T22:31:42.521Z,76.00
2018-09-10T22:34:10.960Z,76.20
2018-09-10T22:36:40.189Z,76.30
2018-09-10T22:39:10.535Z,76.40
2018-09-10T22:41:38.987Z,76.50
2018-09-10T22:44:07.524Z,76.70
2018-09-10T22:46:36.620Z,76.90
2018-09-10T22:49:06.830Z,77.30
2018-09-10T22:51:35.327Z,77.90
2018-09-10T22:54:04.456Z,78.20
2018-09-10T22:56:32.853Z,78.50
2018-09-10T22:59:01.593Z,78.80
2018-09-10T23:01:30.955Z,79.00
2018-09-10T23:04:03.805Z,79.20
2018-09-10T23:06:33.302Z,79.40
2018-09-10T23:09:02.994Z,79.60
2018-09-10T23:11:31.515Z,79.60
2018-09-10T23:14:00.090Z,79.80
2018-09-10T23:16:28.677Z,80.00
2018-09-10T23:18:59.405Z,80.10
2018-09-10T23:21:27.863Z,80.10
2018-09-10T23:23:56.316Z,80.40
2018-09-10T23:26:24.691Z,80.00
2018-09-10T23:28:53.132Z,80.30
2018-09-10T23:31:21.562Z,80.60
2018-09-10T23:33:50.199Z,80.90
2018-09-10T23:36:18.610Z,81.10
2018-09-10T23:38:47.022Z,80.80
2018-09-10T23:41:15.460Z,81.20
2018-09-10T23:43:43.880Z,81.40
2018-09-10T23:46:12.224Z,81.90
2018-09-10T23:48:40.639Z,81.90
2018-09-10T23:51:09.058Z,82.10
2018-09-10T23:53:37.505Z,82.30
2018-09-10T23:56:05.916Z,82.30
2018-09-10T23:58:34.333Z,82.20
